Time;durP1;ratioP1;P1;durP2;ratioP2;P2;SDS_P1;SDS_P2;PMS_P1;PMS_P2;Temp;Humidity;BMP_temperature;BMP_pressure;BME280_temperature;BME280_humidity;BME280_pressure;Samples;Min_cycle;Max_cycle;Signal;HPM_P1;HPM_P2
2021/12/28 00:01:44;;;;;;;;;;;7.50;1.00;;;;;;5037728;28;19920;-83
2021/12/28 00:04:09;;;;;;;;;;;7.50;1.00;;;;;;5049126;28;19913;-83
2021/12/28 00:06:35;;;;;;;;;;;7.50;1.00;;;;;;5047602;28;20373;-84
2021/12/28 00:09:01;;;;;;;;;;;7.50;1.00;;;;;;5043600;28;19948;-84
2021/12/28 00:11:26;;;;;;;;;;;7.50;1.00;;;;;;5041664;28;19920;-83
2021/12/28 00:13:59;;;;;;;;;;;7.50;1.00;;;;;;5044247;28;19921;-84
2021/12/28 00:16:31;;;;;;;;;;;7.50;1.00;;;;;;5039517;28;20124;-83
2021/12/28 00:18:57;;;;;;;;;;;7.50;1.00;;;;;;5039591;28;19913;-84
2021/12/28 00:21:23;;;;;;;;;;;7.50;1.00;;;;;;5041726;28;19912;-84
2021/12/28 00:23:49;;;;;;;;;;;7.50;1.00;;;;;;5047844;28;20423;-84
2021/12/28 00:26:15;;;;;;;;;;;7.50;1.00;;;;;;5037620;28;19913;-83
2021/12/28 00:28:43;;;;;;;;;;;7.50;1.00;;;;;;5038937;28;20313;-84
2021/12/28 00:31:11;;;;;;;;;;;7.60;1.00;;;;;;5046490;28;19920;-84
2021/12/28 00:33:37;;;;;;;;;;;7.60;1.00;;;;;;5048696;28;19925;-84
2021/12/28 00:36:03;;;;;;;;;;;7.60;1.00;;;;;;5036750;28;19919;-83
2021/12/28 00:38:29;;;;;;;;;;;7.70;1.00;;;;;;5044186;28;19952;-84
2021/12/28 00:40:58;;;;;;;;;;;7.70;1.00;;;;;;5044882;28;20464;-84
2021/12/28 00:43:24;;;;;;;;;;;7.80;1.00;;;;;;5049438;28;19928;-84
2021/12/28 00:45:50;;;;;;;;;;;7.80;1.00;;;;;;5048270;28;20360;-84
2021/12/28 00:48:15;;;;;;;;;;;7.90;1.00;;;;;;5038433;28;19958;-84
2021/12/28 00:50:41;;;;;;;;;;;7.90;1.00;;;;;;5043193;28;19913;-84
2021/12/28 00:53:07;;;;;;;;;;;7.90;1.00;;;;;;5040159;28;19963;-84
2021/12/28 00:55:32;;;;;;;;;;;8.00;1.00;;;;;;5042630;28;19945;-84
2021/12/28 00:57:58;;;;;;;;;;;8.00;1.00;;;;;;5044216;28;19913;-84
2021/12/28 01:00:28;;;;;;;;;;;8.00;1.00;;;;;;5043943;28;20011;-84
2021/12/28 01:02:54;;;;;;;;;;;8.00;1.00;;;;;;5037287;28;20373;-84
2021/12/28 01:05:20;;;;;;;;;;;8.00;1.00;;;;;;5041734;28;19923;-84
2021/12/28 01:07:45;;;;;;;;;;;7.90;1.00;;;;;;5042985;28;20296;-84
2021/12/28 01:10:13;;;;;;;;;;;7.90;1.00;;;;;;5044098;28;20036;-84
2021/12/28 01:12:38;;;;;;;;;;;7.90;1.00;;;;;;5036565;28;19917;-84
2021/12/28 01:15:06;;;;;;;;;;;7.90;1.00;;;;;;5043586;28;20296;-84
2021/12/28 01:17:35;;;;;;;;;;;7.90;1.00;;;;;;5045179;28;20208;-83
2021/12/28 01:20:01;;;;;;;;;;;7.90;1.00;;;;;;5033660;28;19919;-84
2021/12/28 01:22:27;;;;;;;;;;;7.90;1.00;;;;;;5038832;28;19995;-84
2021/12/28 01:24:52;;;;;;;;;;;7.90;1.00;;;;;;5039746;28;20461;-83
2021/12/28 01:27:18;;;;;;;;;;;7.90;1.00;;;;;;5039936;28;19916;-84
2021/12/28 01:29:43;;;;;;;;;;;7.90;1.00;;;;;;5048576;28;20443;-83
2021/12/28 01:32:10;;;;;;;;;;;7.90;1.00;;;;;;5042798;28;20270;-84
2021/12/28 01:34:35;;;;;;;;;;;7.80;1.00;;;;;;5049337;28;19913;-83
2021/12/28 01:37:01;;;;;;;;;;;7.80;1.00;;;;;;5043462;28;19948;-84
2021/12/28 01:39:27;;;;;;;;;;;7.80;1.00;;;;;;5042548;28;19958;-84
2021/12/28 01:41:52;;;;;;;;;;;7.80;1.00;;;;;;5044253;28;19962;-85
2021/12/28 01:44:18;;;;;;;;;;;7.80;1.00;;;;;;5037998;28;19909;-83
2021/12/28 01:46:43;;;;;;;;;;;7.80;1.00;;;;;;5040766;28;19920;-84
2021/12/28 01:49:09;;;;;;;;;;;7.80;1.00;;;;;;5041014;28;19913;-84
2021/12/28 01:51:35;;;;;;;;;;;7.80;1.00;;;;;;5047347;28;19921;-84
2021/12/28 01:54:01;;;;;;;;;;;7.80;1.00;;;;;;5038758;28;20288;-84
2021/12/28 01:56:30;;;;;;;;;;;7.80;1.00;;;;;;5046675;28;19913;-84
2021/12/28 01:58:55;;;;;;;;;;;7.80;1.00;;;;;;5044267;28;19958;-84
2021/12/28 02:01:23;;;;;;;;;;;7.80;1.00;;;;;;5040330;28;20331;-84
2021/12/28 02:03:48;;;;;;;;;;;7.80;1.00;;;;;;5046034;28;19916;-84
2021/12/28 02:06:14;;;;;;;;;;;7.90;1.00;;;;;;5043796;28;20428;-84
2021/12/28 02:08:40;;;;;;;;;;;7.90;1.00;;;;;;5044983;28;19909;-84
2021/12/28 02:11:06;;;;;;;;;;;8.00;1.00;;;;;;5046905;28;19913;-84
2021/12/28 02:13:32;;;;;;;;;;;8.00;1.00;;;;;;5044760;28;19913;-84
2021/12/28 02:15:58;;;;;;;;;;;8.00;1.00;;;;;;5044449;28;19920;-84
2021/12/28 02:18:24;;;;;;;;;;;8.10;1.00;;;;;;5048073;28;19909;-84
2021/12/28 02:20:50;;;;;;;;;;;8.10;1.00;;;;;;5034442;28;19951;-84
2021/12/28 02:23:15;;;;;;;;;;;8.10;1.00;;;;;;5043628;28;19917;-84
2021/12/28 02:25:41;;;;;;;;;;;8.00;1.00;;;;;;5042514;28;19920;-84
2021/12/28 02:28:08;;;;;;;;;;;8.00;1.00;;;;;;5044036;28;19920;-84
2021/12/28 02:30:34;;;;;;;;;;;7.90;1.00;;;;;;5048388;28;19924;-83
2021/12/28 02:32:59;;;;;;;;;;;7.90;5.20;;;;;;5046009;28;20344;-83
2021/12/28 02:35:26;;;;;;;;;;;7.90;9.20;;;;;;5048232;28;19913;-83
2021/12/28 02:37:52;;;;;;;;;;;7.90;13.40;;;;;;5035053;28;19913;-83
2021/12/28 02:40:19;;;;;;;;;;;7.90;16.60;;;;;;5043619;28;19914;-83
2021/12/28 02:42:45;;;;;;;;;;;7.90;18.80;;;;;;5037148;28;19917;-83
2021/12/28 02:45:13;;;;;;;;;;;7.90;19.10;;;;;;5048696;28;19913;-83
2021/12/28 02:47:41;;;;;;;;;;;7.90;18.90;;;;;;5043799;28;19913;-83
2021/12/28 02:50:09;;;;;;;;;;;7.90;18.40;;;;;;5036933;28;19995;-82
2021/12/28 02:52:36;;;;;;;;;;;7.90;18.60;;;;;;5041395;28;19927;-82
2021/12/28 02:55:02;;;;;;;;;;;8.00;17.60;;;;;;5044026;28;19913;-83
2021/12/28 02:57:28;;;;;;;;;;;8.00;18.20;;;;;;5042553;28;19913;-82
2021/12/28 02:59:53;;;;;;;;;;;8.00;18.70;;;;;;5047060;28;19917;-83
2021/12/28 03:02:19;;;;;;;;;;;8.00;17.90;;;;;;5039293;28;19996;-82
2021/12/28 03:04:44;;;;;;;;;;;8.10;16.30;;;;;;5046640;28;20384;-83
2021/12/28 03:07:10;;;;;;;;;;;8.10;15.00;;;;;;5017370;28;19918;-83
2021/12/28 03:09:36;;;;;;;;;;;8.10;13.90;;;;;;5025557;28;19920;-82
2021/12/28 03:12:02;;;;;;;;;;;8.20;11.60;;;;;;5042741;28;20027;-82
2021/12/28 03:14:28;;;;;;;;;;;8.20;8.50;;;;;;5046595;28;19999;-82
2021/12/28 03:16:53;;;;;;;;;;;8.20;4.60;;;;;;5040376;28;20451;-82
2021/12/28 03:19:19;;;;;;;;;;;8.20;1.00;;;;;;5047334;28;19921;-82
2021/12/28 03:21:46;;;;;;;;;;;8.10;1.00;;;;;;5044314;28;20384;-82
2021/12/28 03:24:12;;;;;;;;;;;8.10;1.00;;;;;;5043948;28;19917;-82
2021/12/28 03:26:38;;;;;;;;;;;8.10;1.00;;;;;;5044524;28;19931;-82
2021/12/28 03:29:04;;;;;;;;;;;8.10;1.00;;;;;;5043941;28;20013;-83
2021/12/28 03:31:29;;;;;;;;;;;8.10;1.00;;;;;;5041903;28;20382;-82
2021/12/28 03:33:55;;;;;;;;;;;8.10;1.00;;;;;;5043519;28;19913;-83
2021/12/28 03:36:22;;;;;;;;;;;8.00;1.00;;;;;;5045470;28;20349;-83
2021/12/28 03:38:47;;;;;;;;;;;8.00;1.00;;;;;;5034749;28;19917;-83
2021/12/28 03:41:14;;;;;;;;;;;8.00;1.00;;;;;;5043946;28;20403;-83
2021/12/28 03:43:41;;;;;;;;;;;8.00;1.00;;;;;;5038670;28;19913;-83
2021/12/28 03:46:07;;;;;;;;;;;8.00;1.00;;;;;;5044337;28;19913;-83
2021/12/28 03:48:33;;;;;;;;;;;8.00;1.00;;;;;;5041056;28;19917;-82
2021/12/28 03:50:59;;;;;;;;;;;8.10;1.00;;;;;;5043690;28;19975;-82
2021/12/28 03:53:24;;;;;;;;;;;8.00;1.00;;;;;;5043820;28;19912;-83
2021/12/28 03:55:50;;;;;;;;;;;8.10;1.00;;;;;;5034573;28;20045;-83
2021/12/28 03:58:15;;;;;;;;;;;8.10;1.00;;;;;;5046999;28;19920;-83
2021/12/28 04:00:44;;;;;;;;;;;8.10;1.00;;;;;;5041683;28;20488;-83
2021/12/28 04:03:09;;;;;;;;;;;8.20;1.00;;;;;;5036602;28;20026;-83
2021/12/28 04:05:35;;;;;;;;;;;8.20;1.00;;;;;;5041039;28;19920;-83
2021/12/28 04:08:01;;;;;;;;;;;8.20;1.00;;;;;;5044999;28;19913;-82
2021/12/28 04:10:32;;;;;;;;;;;8.20;1.00;;;;;;5039098;28;19913;-83
2021/12/28 04:12:58;;;;;;;;;;;8.20;1.00;;;;;;5039282;28;19917;-83
2021/12/28 04:15:23;;;;;;;;;;;8.20;1.00;;;;;;5043252;28;19959;-82
2021/12/28 04:17:49;;;;;;;;;;;8.30;1.00;;;;;;5046699;28;19962;-83
2021/12/28 04:20:16;;;;;;;;;;;8.30;1.00;;;;;;5040899;28;19920;-83
2021/12/28 04:22:43;;;;;;;;;;;8.30;1.00;;;;;;5043406;28;19924;-81
2021/12/28 04:25:09;;;;;;;;;;;8.30;1.00;;;;;;5036528;28;19914;-83
2021/12/28 04:27:34;;;;;;;;;;;8.30;1.00;;;;;;5044714;28;19925;-83
2021/12/28 04:30:00;;;;;;;;;;;8.40;1.00;;;;;;5036011;28;19928;-83
2021/12/28 04:32:25;;;;;;;;;;;8.40;1.00;;;;;;5045967;28;19917;-83
2021/12/28 04:34:51;;;;;;;;;;;8.40;1.00;;;;;;5045141;28;19921;-84
2021/12/28 04:37:16;;;;;;;;;;;8.40;1.00;;;;;;5048494;28;19916;-83
2021/12/28 04:39:42;;;;;;;;;;;8.50;1.00;;;;;;5044382;28;20324;-83
2021/12/28 04:42:07;;;;;;;;;;;8.50;1.00;;;;;;5049037;28;19909;-84
2021/12/28 04:44:33;;;;;;;;;;;8.60;1.00;;;;;;5042357;28;19912;-84
2021/12/28 04:46:59;;;;;;;;;;;8.60;1.00;;;;;;5042078;28;19960;-83
2021/12/28 04:49:26;;;;;;;;;;;8.60;1.00;;;;;;5047998;28;19913;-83
2021/12/28 04:51:52;;;;;;;;;;;8.60;1.00;;;;;;5052036;28;19923;-83
2021/12/28 04:54:18;;;;;;;;;;;8.60;1.00;;;;;;5028671;28;19924;-83
2021/12/28 04:56:44;;;;;;;;;;;8.70;1.00;;;;;;5049836;28;19912;-83
2021/12/28 04:59:09;;;;;;;;;;;8.60;1.00;;;;;;5050299;28;19920;-83
2021/12/28 05:01:36;;;;;;;;;;;8.60;1.00;;;;;;5037840;28;19956;-83
2021/12/28 05:04:05;;;;;;;;;;;8.60;1.00;;;;;;5040171;28;20871;-83
2021/12/28 05:06:31;;;;;;;;;;;8.60;1.00;;;;;;5042737;28;19913;-83
2021/12/28 05:08:57;;;;;;;;;;;8.60;1.00;;;;;;5044968;28;19963;-83
2021/12/28 05:11:23;;;;;;;;;;;8.60;1.00;;;;;;5044984;28;19921;-83
2021/12/28 05:13:48;;;;;;;;;;;8.60;3.20;;;;;;5034841;28;19913;-83
2021/12/28 05:16:15;;;;;;;;;;;8.50;5.90;;;;;;5049925;28;19924;-83
2021/12/28 05:18:41;;;;;;;;;;;8.50;7.60;;;;;;5046034;28;19995;-83
2021/12/28 05:21:06;;;;;;;;;;;8.60;9.30;;;;;;5051351;28;19944;-83
2021/12/28 05:23:32;;;;;;;;;;;8.60;9.80;;;;;;5037987;28;20409;-83
2021/12/28 05:25:57;;;;;;;;;;;8.60;11.90;;;;;;5036628;28;20417;-83
2021/12/28 05:28:23;;;;;;;;;;;8.60;13.70;;;;;;5048359;28;19914;-84
2021/12/28 05:30:48;;;;;;;;;;;8.60;15.00;;;;;;5037697;28;19917;-83
2021/12/28 05:33:14;;;;;;;;;;;8.60;16.20;;;;;;5035910;28;20016;-84
2021/12/28 05:35:39;;;;;;;;;;;8.60;17.00;;;;;;5035620;28;19914;-83
2021/12/28 05:38:05;;;;;;;;;;;8.60;16.40;;;;;;5037266;28;19917;-84
2021/12/28 05:40:30;;;;;;;;;;;8.60;15.30;;;;;;5036964;28;19913;-84
2021/12/28 05:42:56;;;;;;;;;;;8.60;12.90;;;;;;5036685;28;19909;-84
2021/12/28 05:45:21;;;;;;;;;;;8.60;7.80;;;;;;5037100;28;19916;-83
2021/12/28 05:47:47;;;;;;;;;;;8.70;5.90;;;;;;5032579;28;20011;-83
2021/12/28 05:50:12;;;;;;;;;;;8.70;5.40;;;;;;5046370;28;19921;-83
2021/12/28 05:52:38;;;;;;;;;;;8.70;3.60;;;;;;5055715;28;19981;-84
2021/12/28 05:55:04;;;;;;;;;;;8.70;2.70;;;;;;5046075;28;20297;-83
2021/12/28 05:57:30;;;;;;;;;;;8.70;2.10;;;;;;5036372;28;19909;-83
2021/12/28 05:59:56;;;;;;;;;;;8.70;1.00;;;;;;5037726;28;19920;-82
2021/12/28 06:02:21;;;;;;;;;;;8.70;1.00;;;;;;5051378;28;19971;-83
2021/12/28 06:04:47;;;;;;;;;;;8.70;1.00;;;;;;5037319;28;19920;-83
2021/12/28 06:07:12;;;;;;;;;;;8.70;1.00;;;;;;5046294;28;19916;-84
2021/12/28 06:09:38;;;;;;;;;;;8.70;1.00;;;;;;5036569;28;19913;-84
2021/12/28 06:12:06;;;;;;;;;;;8.70;1.00;;;;;;5038140;28;19955;-83
2021/12/28 06:14:31;;;;;;;;;;;8.80;1.00;;;;;;5038019;28;19914;-84
2021/12/28 06:16:57;;;;;;;;;;;8.80;1.00;;;;;;5038484;28;19909;-84
2021/12/28 06:19:22;;;;;;;;;;;8.80;1.00;;;;;;5038176;28;19913;-83
2021/12/28 06:21:48;;;;;;;;;;;8.80;1.00;;;;;;5035439;28;20370;-83
2021/12/28 06:24:13;;;;;;;;;;;8.80;1.00;;;;;;5052056;28;20365;-83
2021/12/28 06:26:39;;;;;;;;;;;8.80;1.00;;;;;;5054653;28;19916;-83
2021/12/28 06:29:06;;;;;;;;;;;8.80;1.00;;;;;;5036237;28;19916;-84
2021/12/28 06:31:31;;;;;;;;;;;8.80;1.00;;;;;;5035339;28;19913;-83
2021/12/28 06:33:58;;;;;;;;;;;8.80;1.00;;;;;;5034200;28;19963;-83
2021/12/28 06:36:24;;;;;;;;;;;8.80;1.00;;;;;;5034752;28;19917;-83
2021/12/28 06:38:50;;;;;;;;;;;8.90;1.00;;;;;;5035549;28;19910;-84
2021/12/28 06:41:15;;;;;;;;;;;8.80;1.00;;;;;;5035585;28;20392;-83
2021/12/28 06:43:41;;;;;;;;;;;8.90;1.00;;;;;;5036475;28;20419;-84
2021/12/28 06:46:06;;;;;;;;;;;8.90;1.00;;;;;;5037458;28;19913;-84
2021/12/28 06:48:32;;;;;;;;;;;8.90;1.00;;;;;;5038721;28;19909;-84
2021/12/28 06:50:57;;;;;;;;;;;8.90;1.00;;;;;;5037992;28;19913;-84
2021/12/28 06:53:23;;;;;;;;;;;8.90;1.00;;;;;;5038623;28;20408;-83
2021/12/28 06:55:48;;;;;;;;;;;8.90;1.00;;;;;;5038255;28;19939;-84
2021/12/28 06:58:14;;;;;;;;;;;8.90;1.00;;;;;;5038748;28;19913;-84
2021/12/28 07:00:39;;;;;;;;;;;8.90;1.00;;;;;;5038182;28;20000;-84
2021/12/28 07:03:05;;;;;;;;;;;8.90;1.00;;;;;;5038699;28;19912;-84
2021/12/28 07:05:31;;;;;;;;;;;8.90;1.00;;;;;;5038406;28;19913;-84
2021/12/28 07:07:56;;;;;;;;;;;8.80;1.00;;;;;;5041540;28;19910;-84
2021/12/28 07:10:22;;;;;;;;;;;8.80;1.00;;;;;;5038171;28;19913;-84
2021/12/28 07:12:51;;;;;;;;;;;8.80;1.00;;;;;;5037487;28;19924;-84
2021/12/28 07:15:19;;;;;;;;;;;8.80;1.00;;;;;;5036177;28;20316;-84
2021/12/28 07:17:44;;;;;;;;;;;8.80;1.00;;;;;;5038593;28;20008;-84
2021/12/28 07:20:10;;;;;;;;;;;8.80;1.00;;;;;;5035898;28;19951;-84
2021/12/28 07:22:36;;;;;;;;;;;8.80;1.00;;;;;;5032933;28;19956;-85
2021/12/28 07:25:02;;;;;;;;;;;8.80;1.00;;;;;;5033966;28;19910;-84
2021/12/28 07:27:28;;;;;;;;;;;8.80;1.00;;;;;;5034188;28;19963;-86
2021/12/28 07:29:53;;;;;;;;;;;8.80;1.00;;;;;;5035448;28;20004;-84
2021/12/28 07:32:19;;;;;;;;;;;8.80;1.00;;;;;;5034772;28;19917;-84
2021/12/28 07:34:44;;;;;;;;;;;8.90;1.00;;;;;;5035459;28;19917;-84
2021/12/28 07:37:09;;;;;;;;;;;8.90;1.00;;;;;;5034808;28;20396;-84
2021/12/28 07:39:35;;;;;;;;;;;8.90;1.00;;;;;;5045151;28;19917;-84
2021/12/28 07:42:00;;;;;;;;;;;8.90;1.00;;;;;;5039895;28;19967;-84
2021/12/28 07:44:26;;;;;;;;;;;9.00;1.00;;;;;;5041059;28;19948;-84
2021/12/28 07:46:52;;;;;;;;;;;9.00;1.00;;;;;;5035881;28;19909;-85
2021/12/28 07:49:17;;;;;;;;;;;9.00;1.00;;;;;;5035683;28;19940;-85
2021/12/28 07:51:43;;;;;;;;;;;9.00;1.00;;;;;;5039814;28;19916;-84
2021/12/28 07:54:08;;;;;;;;;;;9.00;1.00;;;;;;5033978;28;20012;-84
2021/12/28 07:56:34;;;;;;;;;;;9.00;1.00;;;;;;5046217;28;19920;-84
2021/12/28 07:58:59;;;;;;;;;;;9.00;1.00;;;;;;5038197;28;19917;-84
2021/12/28 08:01:24;;;;;;;;;;;9.00;1.00;;;;;;5040963;28;19913;-85
2021/12/28 08:03:50;;;;;;;;;;;9.00;1.00;;;;;;5052270;28;19998;-85
2021/12/28 08:06:15;;;;;;;;;;;9.00;1.00;;;;;;5043179;28;19917;-84
2021/12/28 08:08:41;;;;;;;;;;;9.10;1.00;;;;;;5023064;28;24522;-84
2021/12/28 08:11:07;;;;;;;;;;;9.10;1.00;;;;;;5031820;28;19919;-85
2021/12/28 08:13:32;;;;;;;;;;;9.20;1.00;;;;;;5034306;28;20385;-84
2021/12/28 08:15:58;;;;;;;;;;;9.40;1.00;;;;;;5044766;28;20324;-84
2021/12/28 08:18:23;;;;;;;;;;;9.50;1.00;;;;;;5039099;28;19916;-85
2021/12/28 08:20:49;;;;;;;;;;;9.60;1.00;;;;;;5051188;28;20408;-84
2021/12/28 08:23:14;;;;;;;;;;;9.60;1.00;;;;;;5043106;28;20389;-85
2021/12/28 08:25:40;;;;;;;;;;;9.60;1.00;;;;;;5045607;28;19919;-85
2021/12/28 08:28:06;;;;;;;;;;;9.60;1.00;;;;;;5048087;28;19964;-85
2021/12/28 08:30:35;;;;;;;;;;;9.60;1.00;;;;;;5043309;28;19971;-84
2021/12/28 08:33:03;;;;;;;;;;;9.60;1.00;;;;;;5046982;28;20063;-84
2021/12/28 08:35:29;;;;;;;;;;;9.50;1.00;;;;;;5044526;28;19913;-84
2021/12/28 08:37:54;;;;;;;;;;;9.50;1.00;;;;;;5040956;28;20301;-84
2021/12/28 08:40:20;;;;;;;;;;;9.60;1.00;;;;;;5045466;28;19964;-83
2021/12/28 08:42:46;;;;;;;;;;;9.50;1.00;;;;;;5040214;28;19920;-83
2021/12/28 08:45:11;;;;;;;;;;;9.50;1.00;;;;;;5044754;28;20320;-84
2021/12/28 08:47:37;;;;;;;;;;;9.60;1.00;;;;;;5041525;28;19912;-83
2021/12/28 08:50:03;;;;;;;;;;;9.60;1.00;;;;;;5043687;28;19913;-84
2021/12/28 08:52:28;;;;;;;;;;;9.70;1.00;;;;;;5042372;28;20000;-85
2021/12/28 08:54:54;;;;;;;;;;;9.70;1.00;;;;;;5048185;28;19953;-85
2021/12/28 08:57:20;;;;;;;;;;;9.80;1.00;;;;;;5052586;28;19975;-84
2021/12/28 08:59:45;;;;;;;;;;;9.90;1.00;;;;;;5049102;28;19918;-84
2021/12/28 09:02:11;;;;;;;;;;;10.00;1.00;;;;;;5042068;28;20074;-84
2021/12/28 09:04:39;;;;;;;;;;;10.00;1.00;;;;;;5054361;28;19917;-84
2021/12/28 09:07:05;;;;;;;;;;;10.10;1.00;;;;;;5059135;28;19959;-84
2021/12/28 09:09:30;;;;;;;;;;;10.20;1.00;;;;;;5060115;28;20369;-85
2021/12/28 09:11:56;;;;;;;;;;;10.30;1.00;;;;;;5044313;28;19960;-84
2021/12/28 09:14:21;;;;;;;;;;;10.30;1.00;;;;;;5040061;28;19913;-84
2021/12/28 09:16:47;;;;;;;;;;;10.30;1.00;;;;;;5038726;28;19913;-83
2021/12/28 09:19:12;;;;;;;;;;;10.40;1.00;;;;;;5039641;28;19935;-83
2021/12/28 09:21:38;;;;;;;;;;;10.50;1.00;;;;;;5048838;28;20556;-84
2021/12/28 09:24:03;;;;;;;;;;;10.50;1.00;;;;;;5041658;28;19921;-83
2021/12/28 09:26:29;;;;;;;;;;;10.50;1.00;;;;;;5041750;28;19917;-83
2021/12/28 09:28:54;;;;;;;;;;;10.50;1.00;;;;;;5049777;28;19917;-84
2021/12/28 09:31:20;;;;;;;;;;;10.60;1.00;;;;;;5040308;28;19916;-84
2021/12/28 09:33:45;;;;;;;;;;;10.60;1.00;;;;;;5045546;28;19936;-84
2021/12/28 09:36:14;;;;;;;;;;;10.60;1.00;;;;;;5048664;28;19999;-83
2021/12/28 09:38:40;;;;;;;;;;;10.60;1.00;;;;;;5041023;28;19920;-84
2021/12/28 09:41:06;;;;;;;;;;;10.60;1.00;;;;;;5040255;28;19968;-84
2021/12/28 09:43:32;;;;;;;;;;;10.70;1.00;;;;;;5046818;28;19917;-83
2021/12/28 09:45:58;;;;;;;;;;;10.70;1.00;;;;;;5042048;28;19913;-83
2021/12/28 09:48:23;;;;;;;;;;;10.70;1.00;;;;;;5045596;28;20332;-84
2021/12/28 09:50:49;;;;;;;;;;;10.70;1.00;;;;;;5044997;28;19959;-83
2021/12/28 09:53:15;;;;;;;;;;;10.70;1.00;;;;;;5042524;28;19923;-84
2021/12/28 09:55:41;;;;;;;;;;;10.70;1.00;;;;;;5046413;28;19971;-84
2021/12/28 09:58:07;;;;;;;;;;;10.80;1.00;;;;;;5044067;28;19928;-84
2021/12/28 10:00:32;;;;;;;;;;;10.90;1.00;;;;;;5048154;28;19909;-84
2021/12/28 10:02:57;;;;;;;;;;;10.90;1.00;;;;;;5052990;28;19909;-84
2021/12/28 10:05:24;;;;;;;;;;;11.00;1.00;;;;;;5049891;28;19923;-83
2021/12/28 10:07:50;;;;;;;;;;;11.00;1.00;;;;;;5051390;28;19920;-84
2021/12/28 10:10:16;;;;;;;;;;;11.10;1.00;;;;;;5045156;28;19940;-84
2021/12/28 10:12:44;;;;;;;;;;;11.30;1.00;;;;;;5043545;28;20392;-84
2021/12/28 10:15:17;;;;;;;;;;;11.40;1.00;;;;;;5046178;28;19913;-84
2021/12/28 10:17:44;;;;;;;;;;;11.50;1.00;;;;;;5041106;28;19960;-84
2021/12/28 10:20:11;;;;;;;;;;;11.60;1.00;;;;;;5045812;28;19913;-84
2021/12/28 10:22:39;;;;;;;;;;;11.70;1.00;;;;;;5045366;28;20369;-84
2021/12/28 10:25:09;;;;;;;;;;;11.80;1.00;;;;;;5091158;22;19946;-79
2021/12/28 10:27:35;;;;;;;;;;;11.80;1.00;;;;;;5074499;28;20376;-79
2021/12/28 10:30:21;;;;;;;;;;;11.80;1.00;;;;;;5066356;28;20593;-78
2021/12/28 10:32:48;;;;;;;;;;;11.70;1.00;;;;;;5075910;28;19921;-80
2021/12/28 10:35:19;;;;;;;;;;;11.80;1.00;;;;;;5067972;28;19913;-79
2021/12/28 10:37:46;;;;;;;;;;;11.80;1.00;;;;;;5061611;28;19913;-80
2021/12/28 10:40:14;;;;;;;;;;;11.70;1.00;;;;;;5063473;28;19916;-78
2021/12/28 10:42:39;;;;;;;;;;;11.80;1.00;;;;;;5063011;28;19913;-78
2021/12/28 10:45:05;;;;;;;;;;;11.90;1.00;;;;;;5061973;28;19920;-78
2021/12/28 10:47:31;;;;;;;;;;;12.00;1.00;;;;;;5061895;28;19913;-78
2021/12/28 10:49:59;;;;;;;;;;;12.20;1.00;;;;;;5062121;28;20385;-79
2021/12/28 10:52:38;;;;;;;;;;;12.40;1.00;;;;;;5051763;28;19924;-78
2021/12/28 10:55:36;;;;;;;;;;;12.40;99.90;;;;;;5063044;28;19982;-79
2021/12/28 10:58:02;;;;;;;;;;;12.50;99.90;;;;;;5015468;28;20435;-79
2021/12/28 11:00:33;;;;;;;;;;;12.40;99.90;;;;;;5038666;28;19913;-78
2021/12/28 11:03:17;;;;;;;;;;;12.40;99.90;;;;;;5057738;28;20182;-79
2021/12/28 11:05:44;;;;;;;;;;;12.30;99.90;;;;;;5050819;28;19912;-79
2021/12/28 11:08:09;;;;;;;;;;;12.30;99.90;;;;;;5059172;28;19912;-77
2021/12/28 11:10:39;;;;;;;;;;;12.20;99.90;;;;;;5054271;28;19913;-78
2021/12/28 11:13:04;;;;;;;;;;;12.10;99.90;;;;;;5055385;28;19916;-79
2021/12/28 11:15:36;;;;;;;;;;;12.10;99.90;;;;;;5057706;28;19919;-78
2021/12/28 11:18:19;;;;;;;;;;;12.10;99.90;;;;;;5049409;28;19918;-79
2021/12/28 11:20:44;;;;;;;;;;;12.10;99.90;;;;;;5058696;28;19920;-79
2021/12/28 11:23:15;;;;;;;;;;;12.10;99.90;;;;;;5049814;28;19913;-79
2021/12/28 11:25:41;;;;;;;;;;;12.10;1.00;;;;;;5065690;28;19917;-80
2021/12/28 11:28:15;;;;;;;;;;;12.10;1.00;;;;;;5063110;28;19923;-80
2021/12/28 11:30:57;;;;;;;;;;;12.00;1.00;;;;;;5064152;28;19912;-79
2021/12/28 11:33:22;;;;;;;;;;;12.00;1.00;;;;;;5049207;28;19921;-79
2021/12/28 11:35:48;;;;;;;;;;;11.90;1.00;;;;;;5064077;28;19920;-79
2021/12/28 11:38:13;;;;;;;;;;;11.90;1.00;;;;;;5053279;28;20300;-78
2021/12/28 11:40:39;;;;;;;;;;;11.80;1.00;;;;;;5063047;28;20050;-79
2021/12/28 11:43:04;;;;;;;;;;;11.80;1.00;;;;;;5062791;28;19913;-79
2021/12/28 11:45:30;;;;;;;;;;;11.70;1.00;;;;;;5067195;28;19956;-80
2021/12/28 11:47:57;;;;;;;;;;;11.70;1.00;;;;;;5065783;28;19920;-79
2021/12/28 11:50:23;;;;;;;;;;;11.60;1.00;;;;;;5067595;28;19968;-80
2021/12/28 11:52:51;;;;;;;;;;;11.50;1.00;;;;;;5067508;28;19924;-80
2021/12/28 11:55:18;;;;;;;;;;;11.50;1.00;;;;;;5065371;28;19962;-79
2021/12/28 11:57:52;;;;;;;;;;;11.40;1.00;;;;;;5064905;28;20273;-79
2021/12/28 12:00:19;;;;;;;;;;;11.40;1.00;;;;;;5062991;28;19920;-80
2021/12/28 12:02:47;;;;;;;;;;;11.30;1.00;;;;;;5065266;28;19990;-79
2021/12/28 12:05:18;;;;;;;;;;;11.10;1.00;;;;;;5056431;28;19928;-79
2021/12/28 12:07:44;;;;;;;;;;;11.10;1.00;;;;;;5065186;28;20059;-79
2021/12/28 12:10:15;;;;;;;;;;;10.90;99.90;;;;;;5062131;28;19916;-79
2021/12/28 12:12:49;;;;;;;;;;;10.90;99.90;;;;;;5050654;28;19916;-80
2021/12/28 12:15:16;;;;;;;;;;;10.80;99.90;;;;;;5064735;28;19913;-80
2021/12/28 12:17:45;;;;;;;;;;;10.80;99.90;;;;;;5059666;28;19917;-80
2021/12/28 12:20:13;;;;;;;;;;;10.80;99.90;;;;;;5065716;28;19916;-80
2021/12/28 12:22:40;;;;;;;;;;;10.80;99.90;;;;;;5067087;28;19917;-79
2021/12/28 12:25:07;;;;;;;;;;;10.80;99.90;;;;;;5065416;28;20408;-80
2021/12/28 12:27:40;;;;;;;;;;;10.90;99.90;;;;;;5068796;28;19913;-79
2021/12/28 12:30:18;;;;;;;;;;;10.90;99.90;;;;;;5061766;28;19955;-80
2021/12/28 12:33:00;;;;;;;;;;;10.90;99.90;;;;;;5068923;28;19916;-79
2021/12/28 12:35:30;;;;;;;;;;;10.90;99.90;;;;;;5055706;28;19913;-79
2021/12/28 12:37:56;;;;;;;;;;;10.90;99.90;;;;;;5051123;28;19913;-80
2021/12/28 12:40:22;;;;;;;;;;;10.90;99.90;;;;;;5064660;28;19977;-80
2021/12/28 12:43:06;;;;;;;;;;;10.90;99.90;;;;;;5063808;28;20381;-80
2021/12/28 12:45:57;;;;;;;;;;;10.90;99.90;;;;;;5059847;28;20482;-80
2021/12/28 12:48:29;;;;;;;;;;;10.90;99.90;;;;;;5060001;28;19912;-79
2021/12/28 12:50:54;;;;;;;;;;;10.90;99.90;;;;;;5063019;28;19936;-80
2021/12/28 12:53:39;;;;;;;;;;;10.90;99.90;;;;;;5058128;28;19913;-78
2021/12/28 12:56:14;;;;;;;;;;;10.90;78.40;;;;;;5062159;28;20343;-79
2021/12/28 12:58:41;;;;;;;;;;;10.90;9.20;;;;;;5063834;28;20328;-79
2021/12/28 13:01:17;;;;;;;;;;;10.90;1.00;;;;;;5058001;28;19920;-79
2021/12/28 13:03:42;;;;;;;;;;;10.90;1.00;;;;;;5054668;28;19909;-79
2021/12/28 13:06:08;;;;;;;;;;;11.00;99.90;;;;;;5062719;28;19924;-80
2021/12/28 13:08:33;;;;;;;;;;;11.00;99.90;;;;;;5063223;28;20011;-79
2021/12/28 13:10:59;;;;;;;;;;;11.20;99.90;;;;;;5058497;28;19913;-79
2021/12/28 13:13:24;;;;;;;;;;;11.50;99.90;;;;;;5061692;28;20023;-78
2021/12/28 13:15:50;;;;;;;;;;;11.80;99.90;;;;;;5063176;28;19913;-80
2021/12/28 13:18:15;;;;;;;;;;;12.10;99.90;;;;;;5069006;28;20030;-80
2021/12/28 13:20:40;;;;;;;;;;;12.10;99.90;;;;;;5065583;28;19941;-80
2021/12/28 13:23:07;;;;;;;;;;;12.50;99.90;;;;;;5045235;28;19909;-80
2021/12/28 13:25:33;;;;;;;;;;;12.70;99.90;;;;;;5065476;28;20388;-80
2021/12/28 13:28:00;;;;;;;;;;;12.90;73.80;;;;;;5061588;28;19912;-79
2021/12/28 13:30:27;;;;;;;;;;;12.70;54.00;;;;;;5055435;28;19921;-80
2021/12/28 13:32:54;;;;;;;;;;;12.50;44.60;;;;;;5046354;28;19939;-80
2021/12/28 13:35:20;;;;;;;;;;;12.40;31.60;;;;;;5045233;28;19913;-80
2021/12/28 13:37:53;;;;;;;;;;;12.40;32.00;;;;;;5056718;28;19959;-80
2021/12/28 13:40:19;;;;;;;;;;;12.20;12.20;;;;;;5040513;28;20358;-80
2021/12/28 13:42:47;;;;;;;;;;;12.10;20.90;;;;;;5048174;28;19912;-79
2021/12/28 13:45:26;;;;;;;;;;;11.90;16.40;;;;;;5053602;28;19932;-80
2021/12/28 13:47:51;;;;;;;;;;;11.80;28.70;;;;;;5056344;28;19934;-79
2021/12/28 13:50:17;;;;;;;;;;;12.00;7.70;;;;;;5058373;28;19991;-80
2021/12/28 13:52:47;;;;;;;;;;;12.50;1.00;;;;;;5054346;28;19962;-80
2021/12/28 13:55:13;;;;;;;;;;;12.90;1.00;;;;;;5049904;28;20014;-80
2021/12/28 13:57:39;;;;;;;;;;;13.10;1.00;;;;;;5055525;28;20417;-79
2021/12/28 14:00:07;;;;;;;;;;;13.30;1.00;;;;;;5055484;28;19967;-80
2021/12/28 14:02:32;;;;;;;;;;;13.30;1.00;;;;;;5055429;28;19943;-79
2021/12/28 14:04:58;;;;;;;;;;;13.10;1.00;;;;;;5038898;28;19912;-80
2021/12/28 14:07:24;;;;;;;;;;;13.10;1.00;;;;;;5046375;28;20502;-80
2021/12/28 14:09:51;;;;;;;;;;;13.10;1.00;;;;;;5047508;28;19913;-81
2021/12/28 14:12:16;;;;;;;;;;;13.00;1.00;;;;;;5040218;28;20015;-79
2021/12/28 14:14:46;;;;;;;;;;;12.60;1.00;;;;;;5042461;28;20593;-79
2021/12/28 14:17:14;;;;;;;;;;;12.30;1.00;;;;;;5039188;28;19921;-81
2021/12/28 14:19:40;;;;;;;;;;;12.00;1.00;;;;;;5052086;28;19913;-80
2021/12/28 14:22:13;;;;;;;;;;;11.70;1.00;;;;;;5053238;28;20293;-81
2021/12/28 14:24:40;;;;;;;;;;;11.50;1.00;;;;;;5059479;28;19921;-81
2021/12/28 14:27:06;;;;;;;;;;;11.40;1.00;;;;;;5050973;28;19935;-79
2021/12/28 14:29:32;;;;;;;;;;;11.20;1.00;;;;;;5051216;28;19913;-79
2021/12/28 14:31:58;;;;;;;;;;;11.10;1.00;;;;;;5041672;28;19952;-79
2021/12/28 14:34:31;;;;;;;;;;;11.00;1.00;;;;;;5055185;28;20331;-79